createdAt,value
2023-03-21T00:00:41.590Z,9.39
2023-03-21T00:03:09.277Z,9.38
2023-03-21T00:05:43.136Z,9.35
2023-03-21T00:08:09.686Z,9.32
2023-03-21T00:10:40.057Z,9.31
2023-03-21T00:13:13.417Z,9.24
2023-03-21T00:16:01.920Z,9.23
2023-03-21T00:18:31.696Z,9.17
2023-03-21T00:21:35.294Z,9.15
2023-03-21T00:23:50.600Z,9.15
2023-03-21T00:26:17.315Z,9.18
2023-03-21T00:28:43.884Z,9.15
2023-03-21T00:31:11.126Z,9.18
2023-03-21T00:33:39.477Z,9.13
2023-03-21T00:36:07.664Z,9.16
2023-03-21T00:38:35.548Z,9.20
2023-03-21T00:41:21.042Z,9.13
2023-03-21T00:43:51.944Z,9.14
2023-03-21T00:46:18.759Z,9.18
2023-03-21T00:48:46.020Z,9.15
2023-03-21T00:51:21.419Z,9.21
2023-03-21T00:53:48.191Z,9.17
2023-03-21T00:56:14.975Z,9.15
2023-03-21T00:58:41.459Z,9.11
2023-03-21T01:01:09.379Z,9.13
2023-03-21T01:03:42.877Z,9.11
2023-03-21T01:06:13.579Z,9.14
2023-03-21T01:08:51.672Z,9.11
2023-03-21T01:11:22.551Z,9.09
2023-03-21T01:13:56.215Z,9.12
2023-03-21T01:16:28.499Z,9.14
2023-03-21T01:18:56.225Z,9.09
2023-03-21T01:21:22.868Z,9.15
2023-03-21T01:23:49.358Z,9.11
2023-03-21T01:26:15.935Z,9.11
2023-03-21T01:28:44.344Z,9.11
2023-03-21T01:31:13.093Z,9.04
2023-03-21T01:33:40.169Z,9.09
2023-03-21T01:36:13.259Z,9.08
2023-03-21T01:38:42.721Z,9.09
2023-03-21T01:41:19.978Z,9.09
2023-03-21T01:43:47.527Z,9.08
2023-03-21T01:46:21.768Z,9.04
2023-03-21T01:49:16.926Z,9.06
2023-03-21T01:51:55.065Z,9.06
2023-03-21T01:54:27.539Z,9.08
2023-03-21T01:56:57.836Z,9.11
2023-03-21T01:59:34.044Z,9.05
2023-03-21T02:02:07.381Z,9.03
2023-03-21T02:04:37.423Z,9.02
2023-03-21T02:07:11.563Z,8.98
2023-03-21T02:09:42.182Z,9.02
2023-03-21T02:12:09.265Z,9.01
2023-03-21T02:14:38.406Z,8.99
2023-03-21T02:17:35.245Z,9.02
2023-03-21T02:20:13.940Z,8.94
2023-03-21T02:23:30.273Z,8.98
2023-03-21T02:25:56.932Z,8.93
2023-03-21T02:28:35.918Z,8.94
2023-03-21T02:31:09.718Z,8.94
2023-03-21T02:34:10.083Z,8.97
2023-03-21T02:37:13.386Z,8.97
2023-03-21T02:40:00.718Z,8.91
2023-03-21T02:42:39.370Z,8.94
2023-03-21T02:45:14.285Z,8.96
2023-03-21T02:47:55.394Z,8.91
2023-03-21T02:50:47.046Z,8.93
2023-03-21T02:53:16.994Z,8.95
2023-03-21T02:55:45.666Z,8.98
2023-03-21T02:58:17.548Z,8.93
2023-03-21T03:00:45.208Z,8.90
2023-03-21T03:03:18.150Z,8.89
2023-03-21T03:05:55.000Z,8.86
2023-03-21T03:08:49.923Z,8.90
2023-03-21T03:11:30.304Z,8.90
2023-03-21T03:14:38.449Z,8.90
2023-03-21T03:17:10.568Z,8.94
2023-03-21T03:20:16.409Z,8.91
2023-03-21T03:22:56.165Z,8.95
2023-03-21T03:25:42.066Z,8.96
2023-03-21T03:28:12.887Z,8.93
2023-03-21T03:30:51.023Z,8.94
2023-03-21T03:33:26.643Z,8.90
2023-03-21T03:36:04.989Z,8.90
2023-03-21T03:38:36.179Z,8.90
2023-03-21T03:41:26.659Z,8.93
2023-03-21T03:43:57.692Z,8.92
2023-03-21T03:46:36.222Z,8.85
2023-03-21T03:49:10.957Z,8.92
2023-03-21T03:51:52.973Z,8.90
2023-03-21T03:54:27.509Z,8.91
2023-03-21T03:56:54.625Z,8.97
2023-03-21T03:59:25.053Z,9.00
2023-03-21T04:01:52.002Z,8.99
2023-03-21T04:04:37.690Z,8.95
2023-03-21T04:07:04.584Z,8.96
2023-03-21T04:09:43.232Z,8.92
2023-03-21T04:12:10.562Z,8.89
2023-03-21T04:14:44.337Z,8.89
2023-03-21T04:17:11.673Z,8.94
2023-03-21T04:19:38.242Z,8.90
2023-03-21T04:22:04.730Z,8.90
2023-03-21T04:24:33.879Z,8.89
2023-03-21T04:27:01.065Z,8.81
2023-03-21T04:29:30.004Z,8.85
2023-03-21T04:31:56.494Z,8.95
2023-03-21T04:34:24.141Z,8.92
2023-03-21T04:36:50.920Z,8.90
2023-03-21T04:39:17.471Z,8.91
2023-03-21T04:41:46.290Z,8.89
2023-03-21T04:44:14.618Z,8.91
2023-03-21T04:46:41.295Z,8.90
2023-03-21T04:49:08.024Z,8.88
2023-03-21T04:51:35.177Z,8.92
2023-03-21T04:54:01.893Z,8.95
2023-03-21T04:56:33.813Z,8.92
2023-03-21T04:59:06.352Z,8.89
2023-03-21T05:01:32.984Z,8.86
2023-03-21T05:04:04.753Z,8.84
2023-03-21T05:06:32.050Z,8.84
2023-03-21T05:09:05.438Z,8.90
2023-03-21T05:11:35.794Z,8.93
2023-03-21T05:14:02.255Z,8.96
2023-03-21T05:16:30.945Z,8.91
2023-03-21T05:18:59.111Z,8.90
2023-03-21T05:21:29.423Z,8.91
2023-03-21T05:23:58.294Z,8.83
2023-03-21T05:26:25.228Z,8.86
2023-03-21T05:28:51.757Z,8.82
2023-03-21T05:31:20.399Z,8.80
2023-03-21T05:33:47.974Z,8.75
2023-03-21T05:36:15.693Z,8.77
2023-03-21T05:38:45.572Z,8.74
2023-03-21T05:41:13.455Z,8.71
2023-03-21T05:43:40.217Z,8.67
2023-03-21T05:46:07.372Z,8.73
2023-03-21T05:48:34.910Z,8.74
2023-03-21T05:51:02.189Z,8.79
2023-03-21T05:53:28.689Z,8.76
2023-03-21T05:55:55.659Z,8.75
2023-03-21T05:58:22.232Z,8.72
2023-03-21T06:00:48.701Z,8.69
2023-03-21T06:03:15.302Z,8.74
2023-03-21T06:05:41.835Z,8.77
2023-03-21T06:08:08.383Z,8.77
2023-03-21T06:10:34.918Z,8.81
2023-03-21T06:13:01.653Z,8.84
2023-03-21T06:15:28.098Z,8.97
2023-03-21T06:17:54.675Z,8.96
2023-03-21T06:20:21.250Z,9.01
2023-03-21T06:22:47.976Z,9.03
2023-03-21T06:25:14.432Z,8.98
2023-03-21T06:27:41.266Z,8.96
2023-03-21T06:30:08.932Z,8.97
2023-03-21T06:32:35.576Z,9.02
2023-03-21T06:35:02.291Z,9.07
2023-03-21T06:37:29.182Z,9.17
2023-03-21T06:39:55.833Z,9.13
2023-03-21T06:42:22.323Z,9.25
2023-03-21T06:44:48.870Z,9.24
2023-03-21T06:47:15.773Z,9.26
2023-03-21T06:49:43.807Z,9.25
2023-03-21T06:52:10.851Z,9.31
2023-03-21T06:54:37.559Z,9.37
2023-03-21T06:57:04.143Z,9.44
2023-03-21T06:59:31.214Z,9.50
2023-03-21T07:01:57.665Z,9.46
2023-03-21T07:04:24.221Z,9.44
2023-03-21T07:06:50.679Z,9.47
2023-03-21T07:09:18.236Z,9.48
2023-03-21T07:11:44.727Z,9.48
2023-03-21T07:14:11.470Z,9.52
2023-03-21T07:16:37.978Z,9.59
2023-03-21T07:19:04.553Z,9.75
2023-03-21T07:21:31.270Z,9.86
2023-03-21T07:23:57.777Z,9.90
2023-03-21T07:26:24.402Z,9.94
2023-03-21T07:28:50.983Z,9.94
2023-03-21T07:31:17.820Z,9.93
2023-03-21T07:33:44.474Z,10.03
2023-03-21T07:36:15.808Z,10.01
2023-03-21T07:38:43.853Z,10.05
2023-03-21T07:41:10.690Z,10.07
2023-03-21T07:43:39.187Z,10.10
2023-03-21T07:46:06.587Z,10.22
2023-03-21T07:48:33.383Z,10.35
2023-03-21T07:51:00.238Z,10.41
2023-03-21T07:53:26.993Z,10.57
2023-03-21T07:55:56.556Z,10.62
2023-03-21T07:58:24.559Z,10.63
2023-03-21T08:00:53.452Z,10.82
2023-03-21T08:03:19.996Z,11.01
2023-03-21T08:05:46.976Z,11.06
2023-03-21T08:08:13.508Z,11.15
2023-03-21T08:10:43.776Z,11.16
2023-03-21T08:13:10.357Z,11.08
2023-03-21T08:15:37.679Z,11.01
2023-03-21T08:18:04.418Z,10.97
2023-03-21T08:20:31.295Z,11.07
2023-03-21T08:22:57.832Z,11.13
2023-03-21T08:25:24.786Z,11.23
2023-03-21T08:27:52.286Z,11.43
2023-03-21T08:30:22.166Z,11.56
2023-03-21T08:32:49.470Z,11.75
2023-03-21T08:35:18.641Z,11.83
2023-03-21T08:37:45.752Z,11.99
2023-03-21T08:40:15.842Z,12.01
2023-03-21T08:42:43.600Z,12.07
2023-03-21T08:45:11.556Z,12.23
2023-03-21T08:47:38.617Z,12.35
2023-03-21T08:50:08.036Z,12.48
2023-03-21T08:52:34.818Z,12.81
2023-03-21T08:55:02.279Z,13.14
2023-03-21T08:57:29.425Z,13.51
2023-03-21T08:59:56.129Z,13.96
2023-03-21T09:02:22.672Z,14.26
2023-03-21T09:04:49.680Z,14.33
2023-03-21T09:07:17.185Z,14.05
2023-03-21T09:09:45.832Z,13.79
2023-03-21T09:12:12.584Z,13.70
2023-03-21T09:14:39.135Z,13.64
2023-03-21T09:17:06.063Z,14.05
2023-03-21T09:19:32.821Z,14.67
2023-03-21T09:21:59.675Z,15.09
2023-03-21T09:24:26.507Z,15.37
2023-03-21T09:26:53.006Z,15.27
2023-03-21T09:29:21.465Z,15.39
2023-03-21T09:31:48.576Z,15.39
2023-03-21T09:34:15.818Z,15.60
2023-03-21T09:36:44.276Z,15.87
2023-03-21T09:39:12.005Z,15.80
2023-03-21T09:41:45.202Z,15.77
2023-03-21T09:44:45.018Z,15.79
2023-03-21T09:47:22.178Z,15.84
2023-03-21T09:50:20.571Z,16.26
2023-03-21T09:52:50.769Z,15.95
2023-03-21T09:55:30.805Z,15.60
2023-03-21T09:58:05.071Z,15.59
2023-03-21T10:00:43.600Z,15.75
2023-03-21T10:03:34.990Z,16.01
2023-03-21T10:06:08.662Z,15.90
2023-03-21T10:08:40.252Z,16.47
2023-03-21T10:11:22.673Z,16.76
2023-03-21T10:14:13.011Z,16.73
2023-03-21T10:16:46.788Z,17.22
2023-03-21T10:19:16.891Z,17.94
2023-03-21T10:22:00.159Z,18.15
2023-03-21T10:24:29.402Z,16.75
2023-03-21T10:26:56.937Z,16.32
2023-03-21T10:29:32.545Z,16.71
2023-03-21T10:31:59.980Z,17.30
2023-03-21T10:34:43.647Z,17.61
2023-03-21T10:37:13.308Z,17.71
2023-03-21T10:39:44.046Z,17.77
2023-03-21T10:42:24.697Z,18.79
2023-03-21T10:44:53.572Z,19.58
2023-03-21T10:47:30.971Z,19.22
2023-03-21T10:50:12.119Z,19.27
2023-03-21T10:52:45.959Z,19.10
2023-03-21T10:55:26.440Z,18.52
2023-03-21T10:57:57.718Z,18.41
2023-03-21T11:00:30.424Z,19.33
2023-03-21T11:02:57.570Z,19.33
2023-03-21T11:05:41.884Z,19.59
2023-03-21T11:08:13.965Z,18.63
2023-03-21T11:10:53.401Z,17.94
2023-03-21T11:13:26.142Z,18.46
2023-03-21T11:15:58.202Z,19.00
2023-03-21T11:18:31.192Z,19.06
2023-03-21T11:21:03.810Z,19.70
2023-03-21T11:23:34.215Z,20.16
2023-03-21T11:26:03.787Z,20.58
2023-03-21T11:28:38.328Z,20.23
2023-03-21T11:31:07.111Z,20.29
2023-03-21T11:33:40.596Z,20.25
2023-03-21T11:36:19.443Z,19.80
2023-03-21T11:39:11.670Z,19.21
2023-03-21T11:41:40.987Z,18.47
2023-03-21T11:44:27.058Z,18.16
2023-03-21T11:46:55.233Z,17.92
2023-03-21T11:49:23.082Z,17.89
2023-03-21T11:52:25.757Z,18.30
2023-03-21T11:55:05.031Z,18.53
2023-03-21T11:57:43.869Z,19.20
2023-03-21T12:00:44.821Z,19.19
2023-03-21T12:03:47.776Z,19.56
2023-03-21T12:06:22.705Z,19.60
2023-03-21T12:09:05.732Z,19.70
2023-03-21T12:12:01.560Z,19.94
2023-03-21T12:14:37.173Z,20.55
2023-03-21T12:17:12.538Z,21.26
2023-03-21T12:19:51.702Z,21.95
2023-03-21T12:22:27.623Z,22.29
2023-03-21T12:24:56.491Z,22.69
2023-03-21T12:27:44.853Z,22.17
2023-03-21T12:30:26.400Z,21.97
2023-03-21T12:33:04.858Z,21.67
2023-03-21T12:35:45.926Z,21.02
2023-03-21T12:38:21.696Z,20.88
2023-03-21T12:41:19.175Z,21.33
2023-03-21T12:44:23.684Z,21.87
2023-03-21T12:46:55.943Z,21.52
2023-03-21T12:49:39.502Z,21.45
2023-03-21T12:52:12.703Z,21.29
2023-03-21T12:54:41.384Z,21.07
2023-03-21T12:57:47.814Z,20.69
2023-03-21T13:00:27.871Z,20.39
2023-03-21T13:03:04.547Z,20.18
2023-03-21T13:05:42.700Z,19.87
2023-03-21T13:08:21.414Z,19.48
2023-03-21T13:10:48.294Z,19.67
2023-03-21T13:13:33.540Z,19.62
2023-03-21T13:16:03.026Z,19.45
2023-03-21T13:19:11.394Z,19.32
2023-03-21T13:21:58.308Z,19.29
2023-03-21T13:24:27.538Z,19.03
2023-03-21T13:27:27.631Z,19.13
2023-03-21T13:30:01.305Z,19.09
2023-03-21T13:32:32.592Z,19.14
2023-03-21T13:35:10.135Z,19.06
2023-03-21T13:37:41.958Z,19.06
2023-03-21T13:40:23.116Z,18.92
2023-03-21T13:42:57.124Z,18.59
2023-03-21T13:45:47.762Z,18.49
2023-03-21T13:48:46.511Z,18.30
2023-03-21T13:51:37.773Z,18.10
2023-03-21T13:54:07.442Z,17.88
2023-03-21T13:56:52.159Z,17.74
2023-03-21T13:59:37.727Z,17.59
2023-03-21T14:02:13.695Z,17.80
2023-03-21T14:04:54.161Z,17.95
2023-03-21T14:07:33.964Z,18.00
2023-03-21T14:10:05.173Z,17.91
2023-03-21T14:12:43.774Z,17.87
2023-03-21T14:15:56.084Z,17.78
2023-03-21T14:18:52.175Z,17.81
2023-03-21T14:21:23.815Z,17.55
2023-03-21T14:24:13.125Z,17.42
2023-03-21T14:26:46.653Z,17.30
2023-03-21T14:29:34.083Z,17.30
2023-03-21T14:32:02.053Z,17.33
2023-03-21T14:34:31.209Z,17.41
2023-03-21T14:36:59.144Z,17.38
2023-03-21T14:39:33.531Z,17.32
2023-03-21T14:42:07.610Z,17.27
2023-03-21T14:44:53.915Z,17.31
2023-03-21T14:47:23.038Z,17.50
2023-03-21T14:49:50.857Z,17.63
2023-03-21T14:52:23.198Z,17.74
2023-03-21T14:54:50.775Z,17.81
2023-03-21T14:57:35.580Z,17.77
2023-03-21T15:00:13.114Z,17.64
2023-03-21T15:02:41.944Z,17.68
2023-03-21T15:05:33.338Z,17.80
2023-03-21T15:08:14.551Z,17.63
2023-03-21T15:10:41.973Z,17.57
2023-03-21T15:13:17.030Z,17.64
2023-03-21T15:15:44.358Z,17.62
2023-03-21T15:18:16.624Z,17.68
2023-03-21T15:20:46.571Z,17.67
2023-03-21T15:23:24.217Z,17.59
2023-03-21T15:25:51.069Z,17.55
2023-03-21T15:28:17.918Z,17.52
2023-03-21T15:30:51.047Z,17.53
2023-03-21T15:33:20.287Z,17.50
2023-03-21T15:35:54.128Z,17.50
2023-03-21T15:38:53.753Z,17.40
2023-03-21T15:41:20.661Z,17.38
2023-03-21T15:43:53.892Z,17.35
2023-03-21T15:46:45.259Z,17.30
2023-03-21T15:49:30.308Z,17.24
2023-03-21T15:52:05.731Z,17.15
2023-03-21T15:54:43.469Z,17.11
2023-03-21T15:57:32.847Z,17.02
2023-03-21T16:00:18.335Z,16.91
2023-03-21T16:02:45.814Z,16.79
2023-03-21T16:05:30.746Z,16.69
2023-03-21T16:08:05.145Z,16.64
2023-03-21T16:10:38.717Z,16.60
2023-03-21T16:13:06.606Z,16.57
2023-03-21T16:15:33.591Z,16.48
2023-03-21T16:18:03.835Z,16.43
2023-03-21T16:20:41.466Z,16.33
2023-03-21T16:23:11.399Z,16.27
2023-03-21T16:25:38.550Z,16.19
2023-03-21T16:28:05.415Z,16.02
2023-03-21T16:30:31.880Z,15.91
2023-03-21T16:32:58.643Z,15.76
2023-03-21T16:35:26.117Z,15.64
2023-03-21T16:37:52.850Z,15.60
2023-03-21T16:40:26.516Z,15.52
2023-03-21T16:42:54.599Z,15.46
2023-03-21T16:45:21.554Z,15.44
2023-03-21T16:47:48.135Z,15.36
2023-03-21T16:50:17.884Z,15.33
2023-03-21T16:52:44.362Z,15.31
2023-03-21T16:55:10.882Z,15.29
2023-03-21T16:57:40.354Z,15.28
2023-03-21T17:00:09.832Z,15.23
2023-03-21T17:02:37.238Z,15.16
2023-03-21T17:05:06.478Z,15.15
2023-03-21T17:07:32.947Z,15.08
2023-03-21T17:09:59.555Z,14.97
2023-03-21T17:12:26.046Z,14.93
2023-03-21T17:14:52.650Z,14.76
2023-03-21T17:17:19.440Z,14.68
2023-03-21T17:19:46.596Z,14.60
2023-03-21T17:22:14.665Z,14.55
2023-03-21T17:24:41.454Z,14.44
2023-03-21T17:27:11.556Z,14.39
2023-03-21T17:29:38.513Z,14.27
2023-03-21T17:32:05.167Z,14.25
2023-03-21T17:34:31.930Z,14.18
2023-03-21T17:36:58.764Z,14.14
2023-03-21T17:39:26.734Z,14.12
2023-03-21T17:41:53.950Z,14.11
2023-03-21T17:44:20.967Z,14.09
2023-03-21T17:46:50.318Z,14.06
2023-03-21T17:49:18.071Z,14.02
2023-03-21T17:51:47.210Z,13.97
2023-03-21T17:54:15.537Z,13.89
2023-03-21T17:56:42.170Z,13.86
2023-03-21T17:59:13.276Z,13.75
2023-03-21T18:01:40.006Z,13.75
2023-03-21T18:04:07.084Z,13.71
2023-03-21T18:06:34.455Z,13.66
2023-03-21T18:09:04.672Z,13.68
2023-03-21T18:11:31.315Z,13.61
2023-03-21T18:14:13.760Z,13.64
2023-03-21T18:16:42.231Z,13.58
2023-03-21T18:19:10.862Z,13.57
2023-03-21T18:21:40.524Z,13.56
2023-03-21T18:24:07.492Z,13.59
2023-03-21T18:26:34.164Z,13.55
2023-03-21T18:30:03.876Z,13.46
2023-03-21T18:32:02.789Z,13.48
2023-03-21T18:34:32.043Z,13.39
2023-03-21T18:36:58.613Z,13.34
2023-03-21T18:39:25.479Z,13.26
2023-03-21T18:41:57.073Z,13.24
2023-03-21T18:44:25.674Z,13.26
2023-03-21T18:46:52.520Z,13.26
2023-03-21T18:52:08.158Z,13.20
2023-03-21T18:54:36.493Z,13.17
2023-03-21T18:59:51.859Z,13.00
2023-03-21T19:02:18.413Z,12.97
2023-03-21T19:04:45.173Z,12.88
2023-03-21T19:07:12.150Z,12.87
2023-03-21T19:09:58.550Z,12.83
2023-03-21T19:12:26.604Z,12.77
2023-03-21T19:14:53.535Z,12.67
2023-03-21T19:18:19.276Z,12.65
2023-03-21T19:20:07.241Z,12.68
2023-03-21T19:22:33.744Z,12.69
2023-03-21T19:25:00.311Z,12.62
2023-03-21T19:27:27.609Z,12.64
2023-03-21T19:30:10.789Z,12.67
2023-03-21T19:32:40.630Z,12.57
2023-03-21T19:35:07.648Z,12.53
2023-03-21T19:37:36.199Z,12.53
2023-03-21T19:40:03.963Z,12.45
2023-03-21T19:42:31.015Z,12.49
2023-03-21T19:44:57.949Z,12.48
2023-03-21T19:47:24.556Z,12.44
2023-03-21T19:52:40.499Z,12.35
2023-03-21T19:55:07.365Z,12.33
2023-03-21T19:57:34.883Z,12.26
2023-03-21T20:00:02.242Z,12.17
2023-03-21T20:02:37.087Z,12.09
2023-03-21T20:05:06.022Z,12.14
2023-03-21T20:07:34.064Z,12.11
2023-03-21T20:10:00.733Z,12.13
2023-03-21T20:12:27.664Z,12.06
2023-03-21T20:15:07.056Z,11.99
2023-03-21T20:17:41.147Z,12.01
2023-03-21T20:20:14.563Z,11.97
2023-03-21T20:23:05.573Z,12.01
2023-03-21T20:25:29.574Z,12.02
2023-03-21T20:28:12.891Z,11.98
2023-03-21T20:30:50.825Z,11.91
2023-03-21T20:33:17.912Z,11.91
2023-03-21T20:38:33.728Z,12.01
2023-03-21T20:41:02.820Z,11.94
2023-03-21T20:44:18.301Z,11.97
2023-03-21T20:46:17.441Z,11.93
2023-03-21T20:48:44.584Z,11.91
2023-03-21T20:54:01.072Z,11.92
2023-03-21T20:56:27.579Z,11.89
2023-03-21T20:59:15.375Z,11.88
2023-03-21T21:01:42.569Z,11.88
2023-03-21T21:04:09.659Z,11.84
2023-03-21T21:06:36.380Z,11.77
2023-03-21T21:09:03.459Z,11.72
2023-03-21T21:14:16.491Z,11.78
2023-03-21T21:16:44.943Z,11.78
2023-03-21T21:19:11.533Z,11.69
2023-03-21T21:21:39.502Z,11.68
2023-03-21T21:24:07.683Z,11.63
2023-03-21T21:26:34.543Z,11.67
2023-03-21T21:29:01.603Z,11.60
2023-03-21T21:31:28.489Z,11.58
2023-03-21T21:33:55.672Z,11.59
2023-03-21T21:36:22.697Z,11.52
2023-03-21T21:38:49.601Z,11.52
2023-03-21T21:41:22.565Z,11.61
2023-03-21T21:43:49.102Z,11.61
2023-03-21T21:46:16.189Z,11.62
2023-03-21T21:48:43.717Z,11.66
2023-03-21T21:51:10.746Z,11.62
2023-03-21T21:53:37.872Z,11.58
2023-03-21T21:56:06.269Z,11.55
2023-03-21T21:58:33.791Z,11.51
2023-03-21T22:01:04.467Z,11.51
2023-03-21T22:03:41.015Z,11.46
2023-03-21T22:06:09.307Z,11.49
2023-03-21T22:08:36.478Z,11.44
2023-03-21T22:11:04.518Z,11.43
2023-03-21T22:13:31.516Z,11.43
2023-03-21T22:15:58.239Z,11.43
2023-03-21T22:18:24.794Z,11.36
2023-03-21T22:20:51.255Z,11.31
2023-03-21T22:23:19.363Z,11.34
2023-03-21T22:25:53.945Z,11.27
2023-03-21T22:28:22.141Z,11.24
2023-03-21T22:30:49.045Z,11.08
2023-03-21T22:33:15.740Z,11.09
2023-03-21T22:35:42.341Z,11.06
2023-03-21T22:38:08.870Z,11.02
2023-03-21T22:40:35.802Z,10.99
2023-03-21T22:43:03.011Z,10.87
2023-03-21T22:45:29.470Z,10.82
2023-03-21T22:47:56.203Z,10.83
2023-03-21T22:50:22.688Z,10.77
2023-03-21T22:52:49.446Z,10.75
2023-03-21T22:55:16.016Z,10.78
2023-03-21T22:57:42.621Z,10.75
2023-03-21T23:00:13.684Z,10.74
2023-03-21T23:02:41.371Z,10.71
2023-03-21T23:05:09.368Z,10.65
2023-03-21T23:07:36.416Z,10.54
2023-03-21T23:10:05.069Z,10.56
2023-03-21T23:12:32.076Z,10.52
2023-03-21T23:14:58.577Z,10.51
2023-03-21T23:17:25.157Z,10.48
2023-03-21T23:19:51.664Z,10.42
2023-03-21T23:22:18.669Z,10.36
2023-03-21T23:24:45.394Z,10.27
2023-03-21T23:27:14.297Z,10.20
2023-03-21T23:29:40.700Z,10.12
2023-03-21T23:32:07.175Z,10.06
2023-03-21T23:34:33.682Z,10.02
2023-03-21T23:37:00.316Z,10.01
2023-03-21T23:39:28.564Z,9.92
2023-03-21T23:41:55.236Z,9.86
2023-03-21T23:44:21.738Z,9.86
2023-03-21T23:46:48.505Z,10.02
2023-03-21T23:49:15.443Z,9.98
2023-03-21T23:51:42.081Z,9.96
2023-03-21T23:54:08.809Z,9.95
2023-03-21T23:56:36.716Z,9.94
2023-03-21T23:59:03.906Z,9.91
